Terminal Aerodrome Forecast
Issued by NWS Mt. Holly, NJ

Home | Current Version | Previous Version | Text Only | Print | Product List | Glossary On
Versions: 1 2 3 4 5 6 7 8 9 10 11 12 13 14 15 16
000
FTUS41 KPHI 200300 AAB
TAFILG
TAF AMD
KILG 200346Z 2004/2024 10011KT P6SM FEW025 OVC035
      TEMPO 2004/2008 BKN025
     FM200800 12005KT P6SM OVC025
     FM201100 14004KT P6SM OVC015
     FM201400 16007KT P6SM OVC025
     FM201700 16011KT P6SM BKN035=

USA.gov is the U.S. government's official web portal to all federal, state and local government web resources and services.